Aviation Digital Data Service (ADDS)

Output produced by METARs form (0314 UTC 29 November 2014)
found at http://aviationweather.gov/adds/metars/
 
KCDW 290253Z AUTO 00000KT 10SM CLR M06/M10 A3028 RMK AO2 SLP260 T10561100 51008 TSNO
KMMU 290255Z AUTO 00000KT 10SM M05/M07 A3028 RMK AO2
KFWN 290253Z AUTO 00000KT 10SM CLR M10/M11 A3025 RMK AO2 SLP251 T11001111 53009
KTEB 290251Z 31003KT 10SM CLR M02/M09 A3027 RMK AO2 SLP251 T10221094 51009 $
KTEB 290242Z 2903/2924 VRB02KT P6SM FEW100 SCT250 
     FM290900 VRB02KT P6SM BKN100 
     FM291500 19005KT P6SM SCT070 BKN100 
     FM291800 18006KT P6SM SCT040 BKN070
       
KEWR 290251Z 30005KT 10SM FEW250 M02/M11 A3028 RMK AO2 SLP253 T10221106 51007
KEWR 290242Z 2903/3006 31006KT P6SM FEW250 
     FM290900 VRB03KT P6SM BKN100 
     FM291500 19005KT P6SM SCT070 BKN100 
     FM291800 18007KT P6SM SCT040 BKN070 
     FM300300 20008KT P6SM SCT030 BKN070
       
KABE 290251Z 00000KT 10SM CLR M06/M11 A3026 RMK AO2 SLP253 T10611106 51008 $
KABE 282333Z 2900/2924 28003KT P6SM SCT250 
     FM290500 00000KT P6SM BKN090 
     FM291200 00000KT P6SM BKN050 OVC090 
     FM291500 19005KT P6SM BKN090
       
KAVP 290254Z 18005KT 10SM CLR M09/M13 A3022 RMK AO2 SLP245 T10941128 50004
KAVP 282330Z 2900/2924 VRB03KT P6SM BKN120 
     FM291400 18008KT P6SM SCT045 BKN100 
     FM292000 18008KT P6SM OVC015
       
KSWF 290245Z 24005KT 10SM SKC M09/M10 A3025
KSWF 290242Z 2903/3006 VRB02KT P6SM FEW100 
     FM291800 19005KT P6SM BKN040 BKN070 
     FM292100 17004KT P6SM SCT040 BKN070 
     FM300300 19004KT P6SM SCT025 BKN060 AMD NOT SKED
       
KMSV 290255Z AUTO 30005KT 10SM CLR M09/M12 A3018 RMK AO1 52003
KPOU 290253Z AUTO 00000KT 10SM CLR M08/M11 A3026 RMK AO2 SLP245 T10831111 51009 TSNO
KPOU 282320Z 2900/2924 28008KT P6SM SKC 
     FM290300 00000KT P6SM SKC 
     FM291400 20004KT P6SM OVC100